createdAt,value
2022-11-21T00:01:50.369Z,-0.10
2022-11-21T00:04:24.634Z,-0.20
2022-11-21T00:06:55.859Z,-0.30
2022-11-21T00:09:30.111Z,-0.30
2022-11-21T00:11:59.645Z,-0.30
2022-11-21T00:14:31.953Z,-0.20
2022-11-21T00:17:05.879Z,-0.10
2022-11-21T00:19:39.652Z,-0.20
2022-11-21T00:22:10.451Z,-0.20
2022-11-21T00:24:42.725Z,-0.30
2022-11-21T00:27:15.026Z,-0.30
2022-11-21T00:29:49.955Z,-0.40
2022-11-21T00:32:21.860Z,-0.40
2022-11-21T00:34:56.395Z,-0.40
2022-11-21T00:37:30.106Z,-0.30
2022-11-21T00:40:05.981Z,-0.30
2022-11-21T00:42:37.030Z,-0.30
2022-11-21T00:45:10.820Z,-0.50
2022-11-21T00:48:12.143Z,-0.50
2022-11-21T00:50:46.652Z,-0.40
2022-11-21T00:53:17.813Z,-0.50
2022-11-21T00:55:59.408Z,-0.50
2022-11-21T00:58:43.162Z,-0.50
2022-11-21T01:01:24.658Z,-0.60
2022-11-21T01:04:05.735Z,-0.50
2022-11-21T01:06:41.315Z,-0.40
2022-11-21T01:09:15.113Z,-0.50
2022-11-21T01:11:49.677Z,-0.50
2022-11-21T01:14:21.207Z,-0.60
2022-11-21T01:17:02.442Z,-0.60
2022-11-21T01:19:37.932Z,-0.50
2022-11-21T01:22:14.376Z,-0.40
2022-11-21T01:24:47.269Z,-0.50
2022-11-21T01:27:25.937Z,-0.40
2022-11-21T01:30:03.577Z,-0.40
2022-11-21T01:32:36.948Z,-0.50
2022-11-21T01:35:17.782Z,-0.50
2022-11-21T01:38:05.414Z,-0.60
2022-11-21T01:41:03.563Z,-0.70
2022-11-21T01:43:48.498Z,-0.60
2022-11-21T01:46:41.788Z,-0.70
2022-11-21T01:49:27.174Z,-0.60
2022-11-21T01:52:12.792Z,-0.70
2022-11-21T01:54:53.223Z,-0.70
2022-11-21T01:57:35.436Z,-0.60
2022-11-21T02:00:22.582Z,-0.70
2022-11-21T02:03:09.817Z,-0.70
2022-11-21T02:06:05.488Z,-0.70
2022-11-21T02:08:50.998Z,-0.60
2022-11-21T02:11:43.703Z,-0.80
2022-11-21T02:14:29.646Z,-0.80
2022-11-21T02:17:30.595Z,-0.70
2022-11-21T02:20:10.782Z,-0.70
2022-11-21T02:22:56.585Z,-0.80
2022-11-21T02:25:45.895Z,-0.80
2022-11-21T02:28:34.303Z,-0.80
2022-11-21T02:31:06.390Z,-0.70
2022-11-21T02:33:41.142Z,-0.70
2022-11-21T02:36:45.930Z,-0.60
2022-11-21T02:39:26.069Z,-0.60
2022-11-21T02:42:18.634Z,-0.70
2022-11-21T02:44:59.159Z,-0.70
2022-11-21T02:47:52.290Z,-0.60
2022-11-21T02:50:30.900Z,-0.70
2022-11-21T02:53:04.941Z,-0.60
2022-11-21T02:55:57.159Z,-0.60
2022-11-21T02:58:33.741Z,-0.40
2022-11-21T03:01:21.663Z,-0.40
2022-11-21T03:03:57.911Z,-0.50
2022-11-21T03:06:34.760Z,-0.50
2022-11-21T03:09:13.795Z,-0.70
2022-11-21T03:11:55.246Z,-0.70
2022-11-21T03:14:56.481Z,-0.60
2022-11-21T03:17:34.584Z,-0.60
2022-11-21T03:20:15.941Z,-0.60
2022-11-21T03:23:03.769Z,-0.70
2022-11-21T03:25:46.959Z,-0.70
2022-11-21T03:28:21.703Z,-0.70
2022-11-21T03:30:54.822Z,-0.70
2022-11-21T03:33:43.172Z,-0.70
2022-11-21T03:36:17.558Z,-0.60
2022-11-21T03:38:51.267Z,-0.60
2022-11-21T03:41:34.110Z,-0.70
2022-11-21T03:44:21.573Z,-0.80
2022-11-21T03:46:56.013Z,-0.80
2022-11-21T03:49:42.027Z,-0.80
2022-11-21T03:52:18.633Z,-0.90
2022-11-21T03:55:02.580Z,-1.00
2022-11-21T03:57:37.476Z,-1.10
2022-11-21T04:00:21.014Z,-1.10
2022-11-21T04:03:08.667Z,-1.10
2022-11-21T04:05:49.821Z,-1.10
2022-11-21T04:08:34.301Z,-1.10
2022-11-21T04:13:52.972Z,-1.00
2022-11-21T04:16:28.881Z,-1.00
2022-11-21T04:19:09.959Z,-1.00
2022-11-21T04:22:05.153Z,-1.20
2022-11-21T04:24:45.610Z,-1.10
2022-11-21T04:30:27.258Z,-1.10
2022-11-21T04:33:20.799Z,-1.10
2022-11-21T04:36:22.555Z,-1.00
2022-11-21T04:38:55.784Z,-0.90
2022-11-21T04:41:28.080Z,-0.90
2022-11-21T04:44:04.782Z,-0.80
2022-11-21T04:46:36.776Z,-0.80
2022-11-21T04:49:12.420Z,-0.80
2022-11-21T04:51:48.853Z,-0.80
2022-11-21T04:54:21.597Z,-0.80
2022-11-21T04:56:53.013Z,-0.80
2022-11-21T04:59:28.711Z,-0.80
2022-11-21T05:02:14.961Z,-0.80
2022-11-21T05:04:58.481Z,-0.80
2022-11-21T05:07:51.237Z,-0.80
2022-11-21T05:10:43.290Z,-0.80
2022-11-21T05:13:24.631Z,-0.80
2022-11-21T05:16:05.746Z,-0.90
2022-11-21T05:18:43.788Z,-0.80
2022-11-21T05:21:26.395Z,-0.80
2022-11-21T05:24:08.452Z,-0.60
2022-11-21T05:26:39.399Z,-0.80
2022-11-21T05:29:10.464Z,-0.80
2022-11-21T05:31:53.721Z,-0.80
2022-11-21T05:34:33.467Z,-0.80
2022-11-21T05:37:06.632Z,-0.90
2022-11-21T05:39:38.897Z,-0.90
2022-11-21T05:42:09.775Z,-0.80
2022-11-21T05:44:39.852Z,-0.80
2022-11-21T05:47:13.976Z,-0.80
2022-11-21T05:49:43.440Z,-0.80
2022-11-21T05:52:17.369Z,-0.70
2022-11-21T05:54:51.488Z,-0.80
2022-11-21T05:57:24.409Z,-0.80
2022-11-21T06:00:00.918Z,-0.70
2022-11-21T06:02:53.858Z,-0.70
2022-11-21T06:05:30.672Z,-0.70
2022-11-21T06:08:03.255Z,-0.80
2022-11-21T06:10:40.425Z,-0.80
2022-11-21T06:13:23.749Z,-0.80
2022-11-21T06:16:05.589Z,-0.80
2022-11-21T06:18:40.116Z,-0.80
2022-11-21T06:21:15.199Z,-0.80
2022-11-21T06:23:48.348Z,-0.60
2022-11-21T06:26:24.849Z,-0.60
2022-11-21T06:28:56.913Z,-0.80
2022-11-21T06:31:32.288Z,-0.60
2022-11-21T06:34:03.509Z,-0.50
2022-11-21T06:36:35.159Z,-0.60
2022-11-21T06:39:07.436Z,-0.70
2022-11-21T06:41:42.912Z,-0.60
2022-11-21T06:44:18.599Z,-0.50
2022-11-21T06:46:53.100Z,-0.60
2022-11-21T06:49:23.935Z,-0.70
2022-11-21T06:51:58.304Z,-0.70
2022-11-21T06:54:31.022Z,-0.70
2022-11-21T06:57:03.827Z,-0.80
2022-11-21T06:59:35.780Z,-0.80
2022-11-21T07:02:08.837Z,-0.80
2022-11-21T07:04:40.315Z,-0.60
2022-11-21T07:07:11.105Z,-0.60
2022-11-21T07:09:45.168Z,-0.60
2022-11-21T07:12:37.149Z,-0.60
2022-11-21T07:15:17.229Z,-0.50
2022-11-21T07:17:53.631Z,-0.70
2022-11-21T07:20:30.202Z,-0.60
2022-11-21T07:23:25.250Z,-0.50
2022-11-21T07:26:03.686Z,-0.50
2022-11-21T07:28:50.728Z,-0.40
2022-11-21T07:31:22.702Z,-0.40
2022-11-21T07:33:57.709Z,-0.40
2022-11-21T07:36:32.439Z,-0.40
2022-11-21T07:39:15.992Z,-0.40
2022-11-21T07:41:45.441Z,-0.30
2022-11-21T07:44:18.951Z,-0.30
2022-11-21T07:46:49.017Z,-0.10
2022-11-21T07:49:20.659Z,0.10
2022-11-21T07:51:52.374Z,-0.10
2022-11-21T07:54:25.095Z,-0.10
2022-11-21T07:56:57.860Z,0.00
2022-11-21T07:59:32.933Z,0.00
2022-11-21T08:02:06.028Z,0.00
2022-11-21T08:04:38.165Z,-0.10
2022-11-21T08:07:13.695Z,-0.10
2022-11-21T08:09:45.481Z,0.10
2022-11-21T08:12:17.322Z,0.20
2022-11-21T08:14:49.769Z,0.30
2022-11-21T08:17:23.804Z,0.20
2022-11-21T08:19:56.539Z,0.00
2022-11-21T08:22:27.316Z,0.10
2022-11-21T08:25:05.628Z,0.10
2022-11-21T08:27:49.361Z,0.30
2022-11-21T08:30:38.346Z,0.20
2022-11-21T08:33:20.611Z,0.40
2022-11-21T08:36:16.859Z,0.40
2022-11-21T08:38:50.424Z,0.40
2022-11-21T08:41:39.782Z,0.30
2022-11-21T08:44:15.525Z,0.30
2022-11-21T08:46:53.566Z,0.40
2022-11-21T08:49:29.086Z,0.70
2022-11-21T08:52:14.387Z,0.60
2022-11-21T08:54:49.252Z,0.80
2022-11-21T08:57:26.634Z,0.80
2022-11-21T09:00:06.651Z,0.80
2022-11-21T09:02:45.870Z,0.80
2022-11-21T09:05:20.793Z,0.90
2022-11-21T09:07:58.170Z,0.90
2022-11-21T09:10:27.859Z,1.00
2022-11-21T09:13:00.574Z,1.00
2022-11-21T09:15:50.790Z,1.00
2022-11-21T09:18:24.212Z,0.90
2022-11-21T09:20:52.920Z,0.90
2022-11-21T09:23:21.751Z,1.10
2022-11-21T09:25:51.537Z,1.20
2022-11-21T09:28:20.501Z,1.10
2022-11-21T09:30:49.106Z,1.10
2022-11-21T09:33:17.876Z,1.00
2022-11-21T09:35:49.632Z,1.10
2022-11-21T09:38:22.562Z,0.60
2022-11-21T09:40:52.699Z,0.40
2022-11-21T09:43:42.650Z,0.70
2022-11-21T09:46:17.007Z,0.90
2022-11-21T09:48:56.112Z,0.40
2022-11-21T09:51:27.290Z,0.80
2022-11-21T09:54:00.464Z,0.50
2022-11-21T09:56:31.508Z,0.40
2022-11-21T09:59:13.972Z,0.50
2022-11-21T10:01:42.225Z,0.70
2022-11-21T10:04:10.978Z,0.40
2022-11-21T10:06:51.223Z,0.30
2022-11-21T10:09:28.734Z,0.70
2022-11-21T10:12:21.241Z,0.70
2022-11-21T10:15:03.460Z,0.60
2022-11-21T10:17:46.208Z,1.00
2022-11-21T10:20:29.236Z,1.40
2022-11-21T10:23:25.206Z,1.60
2022-11-21T10:25:58.461Z,1.30
2022-11-21T10:28:36.752Z,1.30
2022-11-21T10:31:09.630Z,1.50
2022-11-21T10:33:40.394Z,1.50
2022-11-21T10:36:20.729Z,1.80
2022-11-21T10:38:52.092Z,1.90
2022-11-21T10:41:26.873Z,1.90
2022-11-21T10:44:22.938Z,2.00
2022-11-21T10:46:57.687Z,1.80
2022-11-21T10:49:30.085Z,1.90
2022-11-21T10:52:06.662Z,2.00
2022-11-21T10:55:10.494Z,1.80
2022-11-21T10:57:44.582Z,1.80
2022-11-21T11:00:23.364Z,1.60
2022-11-21T11:03:05.576Z,1.90
2022-11-21T11:05:36.186Z,1.90
2022-11-21T11:08:09.296Z,2.10
2022-11-21T11:10:41.660Z,1.80
2022-11-21T11:13:46.292Z,1.90
2022-11-21T11:16:18.363Z,1.90
2022-11-21T11:18:52.767Z,1.40
2022-11-21T11:21:23.191Z,1.50
2022-11-21T11:23:53.512Z,1.40
2022-11-21T11:26:27.531Z,1.30
2022-11-21T11:29:10.152Z,1.00
2022-11-21T11:31:43.456Z,0.80
2022-11-21T11:34:15.056Z,0.90
2022-11-21T11:37:07.339Z,1.10
2022-11-21T11:39:41.071Z,1.30
2022-11-21T11:43:05.389Z,1.10
2022-11-21T11:46:09.834Z,1.20
2022-11-21T11:48:56.521Z,1.30
2022-11-21T11:51:36.090Z,1.20
2022-11-21T11:54:11.765Z,1.00
2022-11-21T11:56:40.892Z,1.20
2022-11-21T11:59:17.820Z,1.40
2022-11-21T12:01:51.379Z,1.50
2022-11-21T12:04:21.898Z,1.50
2022-11-21T12:09:52.542Z,0.70
2022-11-21T12:12:39.040Z,0.60
2022-11-21T12:15:34.058Z,0.60
2022-11-21T12:18:14.499Z,0.90
2022-11-21T12:20:53.187Z,1.00
2022-11-21T12:23:25.026Z,1.00
2022-11-21T12:26:06.204Z,0.90
2022-11-21T12:28:43.739Z,0.80
2022-11-21T12:31:18.072Z,0.90
2022-11-21T12:33:55.543Z,0.80
2022-11-21T12:36:36.756Z,0.90
2022-11-21T12:39:44.903Z,0.90
2022-11-21T12:42:39.392Z,1.00
2022-11-21T12:45:27.275Z,0.80
2022-11-21T12:48:38.169Z,0.80
2022-11-21T12:51:46.020Z,0.80
2022-11-21T12:54:45.668Z,0.80
2022-11-21T12:57:15.209Z,0.60
2022-11-21T12:59:59.201Z,0.60
2022-11-21T13:02:35.594Z,0.60
2022-11-21T13:05:10.169Z,0.80
2022-11-21T13:07:40.832Z,0.70
2022-11-21T13:10:16.045Z,0.70
2022-11-21T13:12:49.312Z,0.70
2022-11-21T13:15:27.389Z,0.70
2022-11-21T13:17:59.988Z,0.60
2022-11-21T13:20:34.452Z,0.70
2022-11-21T13:23:06.381Z,0.80
2022-11-21T13:25:43.327Z,1.00
2022-11-21T13:28:43.779Z,0.80
2022-11-21T13:31:33.636Z,0.60
2022-11-21T13:34:03.445Z,0.50
2022-11-21T13:36:44.045Z,0.50
2022-11-21T13:39:38.883Z,0.70
2022-11-21T13:42:29.432Z,0.80
2022-11-21T13:44:58.575Z,0.90
2022-11-21T13:48:05.158Z,1.10
2022-11-21T13:50:50.138Z,1.10
2022-11-21T13:53:51.299Z,1.30
2022-11-21T13:56:37.129Z,1.30
2022-11-21T13:59:26.130Z,1.30
2022-11-21T14:02:14.538Z,1.20
2022-11-21T14:05:18.293Z,1.20
2022-11-21T14:07:48.050Z,1.30
2022-11-21T14:10:33.664Z,1.40
2022-11-21T14:13:04.352Z,1.40
2022-11-21T14:15:41.466Z,1.50
2022-11-21T14:18:21.365Z,1.60
2022-11-21T14:20:53.819Z,1.50
2022-11-21T14:23:24.596Z,1.40
2022-11-21T14:25:57.605Z,1.40
2022-11-21T14:28:29.897Z,1.40
2022-11-21T14:30:59.518Z,1.30
2022-11-21T14:33:30.602Z,1.20
2022-11-21T14:36:03.154Z,1.10
2022-11-21T14:38:36.324Z,1.00
2022-11-21T14:41:31.981Z,0.90
2022-11-21T14:44:18.725Z,1.00
2022-11-21T14:46:48.908Z,1.00
2022-11-21T14:49:23.862Z,1.10
2022-11-21T14:51:58.552Z,1.20
2022-11-21T14:54:30.714Z,1.10
2022-11-21T14:57:03.036Z,1.00
2022-11-21T14:59:33.466Z,1.00
2022-11-21T15:02:04.598Z,0.90
2022-11-21T15:04:35.702Z,1.00
2022-11-21T15:07:05.247Z,1.00
2022-11-21T15:12:29.280Z,0.80
2022-11-21T15:15:00.864Z,0.90
2022-11-21T15:17:30.665Z,0.80
2022-11-21T15:20:17.633Z,0.80
2022-11-21T15:22:49.063Z,0.80
2022-11-21T15:25:20.427Z,0.80
2022-11-21T15:27:51.886Z,0.70
2022-11-21T15:30:24.588Z,0.80
2022-11-21T15:33:06.456Z,0.70
2022-11-21T15:35:49.035Z,0.70
2022-11-21T15:38:28.788Z,0.70
2022-11-21T15:41:29.313Z,0.90
2022-11-21T15:44:21.206Z,0.80
2022-11-21T15:46:54.852Z,0.80
2022-11-21T15:49:33.238Z,0.80
2022-11-21T15:52:09.934Z,0.70
2022-11-21T15:54:38.392Z,0.80
2022-11-21T15:57:06.850Z,0.80
2022-11-21T15:59:38.611Z,0.90
2022-11-21T16:02:07.501Z,0.90
2022-11-21T16:04:35.934Z,0.80
2022-11-21T16:07:04.179Z,0.70
2022-11-21T16:09:32.413Z,0.80
2022-11-21T16:12:00.800Z,0.70
2022-11-21T16:14:29.694Z,0.80
2022-11-21T16:17:00.580Z,0.90
2022-11-21T16:19:31.792Z,0.90
2022-11-21T16:22:00.565Z,1.00
2022-11-21T16:24:29.505Z,1.00
2022-11-21T16:26:57.731Z,1.10
2022-11-21T16:29:26.034Z,1.10
2022-11-21T16:31:55.949Z,1.00
2022-11-21T16:34:30.060Z,1.10
2022-11-21T16:37:05.809Z,1.20
2022-11-21T16:39:35.826Z,1.20
2022-11-21T16:42:04.785Z,1.20
2022-11-21T16:44:33.855Z,1.10
2022-11-21T16:47:08.130Z,1.20
2022-11-21T16:49:43.044Z,1.20
2022-11-21T16:52:11.933Z,1.10
2022-11-21T16:54:41.174Z,1.10
2022-11-21T16:57:11.271Z,1.10
2022-11-21T16:59:40.004Z,1.00
2022-11-21T17:02:08.501Z,1.00
2022-11-21T17:04:39.480Z,1.10
2022-11-21T17:07:08.072Z,1.10
2022-11-21T17:09:36.291Z,1.10
2022-11-21T17:12:04.820Z,1.00
2022-11-21T17:14:33.151Z,1.00
2022-11-21T17:17:01.705Z,1.10
2022-11-21T17:19:30.031Z,1.10
2022-11-21T17:22:01.402Z,1.10
2022-11-21T17:24:29.845Z,1.10
2022-11-21T17:27:00.549Z,1.10
2022-11-21T17:29:30.824Z,1.10
2022-11-21T17:32:01.149Z,1.00
2022-11-21T17:34:33.179Z,1.00
2022-11-21T17:37:03.706Z,1.00
2022-11-21T17:39:33.171Z,1.00
2022-11-21T17:42:03.597Z,1.00
2022-11-21T17:44:33.496Z,1.00
2022-11-21T17:47:02.106Z,1.00
2022-11-21T17:49:37.014Z,1.00
2022-11-21T17:52:08.631Z,1.00
2022-11-21T17:54:37.360Z,0.90
2022-11-21T17:57:05.638Z,0.90
2022-11-21T17:59:34.665Z,1.00
2022-11-21T18:02:03.408Z,0.90
2022-11-21T18:04:32.107Z,0.90
2022-11-21T18:07:03.276Z,0.80
2022-11-21T18:09:32.946Z,0.80
2022-11-21T18:12:01.646Z,0.80
2022-11-21T18:14:31.786Z,0.80
2022-11-21T18:17:00.206Z,0.80
2022-11-21T18:19:30.002Z,0.80
2022-11-21T18:22:00.289Z,0.90
2022-11-21T18:24:30.170Z,0.80
2022-11-21T18:27:01.550Z,0.80
2022-11-21T18:29:37.145Z,0.80
2022-11-21T18:32:07.354Z,0.80
2022-11-21T18:34:37.990Z,0.80
2022-11-21T18:37:06.856Z,0.80
2022-11-21T18:39:36.233Z,0.80
2022-11-21T18:42:07.104Z,0.70
2022-11-21T18:44:37.288Z,0.80
2022-11-21T18:47:19.781Z,0.70
2022-11-21T18:49:49.387Z,0.80
2022-11-21T18:52:17.730Z,0.80
2022-11-21T18:54:47.022Z,0.90
2022-11-21T18:57:17.997Z,0.80
2022-11-21T18:59:47.543Z,0.80
2022-11-21T19:02:16.911Z,0.70
2022-11-21T19:04:45.556Z,0.60
2022-11-21T19:07:13.775Z,0.70
2022-11-21T19:09:42.338Z,0.80
2022-11-21T19:12:10.930Z,0.60
2022-11-21T19:14:41.502Z,0.60
2022-11-21T19:17:09.759Z,0.60
2022-11-21T19:19:40.315Z,0.70
2022-11-21T19:22:09.669Z,0.60
2022-11-21T19:24:38.336Z,0.60
2022-11-21T19:27:09.697Z,0.60
2022-11-21T19:29:41.435Z,0.60
2022-11-21T19:32:10.139Z,0.60
2022-11-21T19:34:40.219Z,0.60
2022-11-21T19:37:10.713Z,0.70
2022-11-21T19:39:41.252Z,0.70
2022-11-21T19:42:09.525Z,0.60
2022-11-21T19:44:37.712Z,0.60
2022-11-21T19:47:07.318Z,0.70
2022-11-21T19:49:35.580Z,0.70
2022-11-21T19:52:03.973Z,0.70
2022-11-21T19:54:32.349Z,0.80
2022-11-21T19:57:00.806Z,0.70
2022-11-21T19:59:31.458Z,0.80
2022-11-21T20:02:01.767Z,0.80
2022-11-21T20:04:32.126Z,0.80
2022-11-21T20:07:04.917Z,0.80
2022-11-21T20:09:37.066Z,0.90
2022-11-21T20:12:09.829Z,1.00
2022-11-21T20:14:38.355Z,0.90
2022-11-21T20:17:06.922Z,0.80
2022-11-21T20:19:36.651Z,0.90
2022-11-21T20:22:05.940Z,0.70
2022-11-21T20:24:41.137Z,0.70
2022-11-21T20:27:11.522Z,0.80
2022-11-21T20:29:39.800Z,0.80
2022-11-21T20:32:08.160Z,0.80
2022-11-21T20:34:42.353Z,0.80
2022-11-21T20:37:13.299Z,0.80
2022-11-21T20:39:42.678Z,0.70
2022-11-21T20:42:11.620Z,0.70
2022-11-21T20:47:29.714Z,0.80
2022-11-21T20:50:00.181Z,0.80
2022-11-21T20:53:49.583Z,0.80
2022-11-21T20:55:17.321Z,0.90
2022-11-21T20:57:45.579Z,1.00
2022-11-21T21:00:16.029Z,1.00
2022-11-21T21:02:44.895Z,1.00
2022-11-21T21:05:14.782Z,1.00
2022-11-21T21:07:43.955Z,1.10
2022-11-21T21:10:15.837Z,1.10
2022-11-21T21:12:48.644Z,1.20
2022-11-21T21:15:17.555Z,1.20
2022-11-21T21:17:46.732Z,1.20
2022-11-21T21:20:16.704Z,1.20
2022-11-21T21:22:45.450Z,1.10
2022-11-21T21:25:14.378Z,1.10
2022-11-21T21:27:42.755Z,1.10
2022-11-21T21:30:12.567Z,1.00
2022-11-21T21:32:42.073Z,1.00
2022-11-21T21:35:11.111Z,1.00
2022-11-21T21:37:40.810Z,1.00
2022-11-21T21:40:10.374Z,1.10
2022-11-21T21:42:41.493Z,1.10
2022-11-21T21:45:11.258Z,1.00
2022-11-21T21:47:39.451Z,1.10
2022-11-21T21:50:15.652Z,1.10
2022-11-21T21:52:46.176Z,1.10
2022-11-21T21:55:14.454Z,1.20
2022-11-21T21:57:48.266Z,1.10
2022-11-21T22:00:19.531Z,1.20
2022-11-21T22:02:47.826Z,1.20
2022-11-21T22:05:16.477Z,1.30
2022-11-21T22:07:47.003Z,1.20
2022-11-21T22:10:17.379Z,1.10
2022-11-21T22:12:49.103Z,1.10
2022-11-21T22:15:17.847Z,1.10
2022-11-21T22:17:46.140Z,1.10
2022-11-21T22:20:15.325Z,1.10
2022-11-21T22:22:43.905Z,1.10
2022-11-21T22:25:13.565Z,1.10
2022-11-21T22:27:43.119Z,1.20
2022-11-21T22:30:14.401Z,1.20
2022-11-21T22:32:42.608Z,1.10
2022-11-21T22:35:10.912Z,1.00
2022-11-21T22:37:39.840Z,1.00
2022-11-21T22:40:10.101Z,1.00
2022-11-21T22:42:39.753Z,0.90
2022-11-21T22:45:09.258Z,0.90
2022-11-21T22:47:47.932Z,1.00
2022-11-21T22:50:17.132Z,0.90
2022-11-21T22:52:45.806Z,0.90
2022-11-21T22:55:15.527Z,0.90
2022-11-21T22:57:45.151Z,0.80
2022-11-21T23:00:18.782Z,0.80
2022-11-21T23:02:52.574Z,0.60
2022-11-21T23:05:20.810Z,0.60
2022-11-21T23:07:49.033Z,0.80
2022-11-21T23:10:18.613Z,0.70
2022-11-21T23:12:49.703Z,0.70
2022-11-21T23:15:18.667Z,0.70
2022-11-21T23:17:52.273Z,0.70
2022-11-21T23:20:22.452Z,0.60
2022-11-21T23:22:51.252Z,0.70
2022-11-21T23:25:20.982Z,0.70
2022-11-21T23:27:50.920Z,0.80
2022-11-21T23:30:19.947Z,0.70
2022-11-21T23:32:48.137Z,0.70
2022-11-21T23:35:16.633Z,0.70
2022-11-21T23:37:47.587Z,0.80
2022-11-21T23:40:17.602Z,0.70
2022-11-21T23:42:47.178Z,0.70
2022-11-21T23:45:17.946Z,0.60
2022-11-21T23:47:46.179Z,0.60
2022-11-21T23:50:15.418Z,0.60
2022-11-21T23:52:43.670Z,0.60
2022-11-21T23:55:13.521Z,0.60
2022-11-21T23:57:48.782Z,0.50
